createdAt,value
2018-09-07T08:44:08.001Z,34.20
2018-09-07T08:46:39.301Z,38.40
2018-09-07T08:49:11.311Z,36.90
2018-09-07T08:51:42.838Z,37.20
2018-09-07T08:54:13.231Z,37.70
2018-09-07T08:56:43.953Z,38.20
2018-09-07T08:59:15.817Z,38.60
2018-09-07T09:01:46.709Z,38.50
2018-09-07T09:04:17.734Z,38.60
2018-09-07T09:06:48.352Z,38.70
2018-09-07T09:09:18.981Z,38.60
2018-09-07T09:11:50.654Z,38.90
2018-09-07T09:14:22.218Z,39.20
2018-09-07T09:16:53.355Z,39.80
2018-09-07T09:19:24.882Z,40.20
2018-09-07T09:21:56.178Z,41.00
2018-09-07T09:24:28.188Z,42.10
2018-09-07T09:26:58.926Z,42.40
2018-09-07T09:29:30.069Z,41.20
2018-09-07T09:32:01.630Z,40.60
2018-09-07T09:34:32.659Z,40.70
2018-09-07T09:37:02.861Z,40.70
2018-09-07T09:39:33.793Z,40.20
2018-09-07T09:42:04.229Z,39.80
2018-09-07T09:44:34.772Z,39.10
2018-09-07T09:47:05.663Z,39.20
2018-09-07T09:49:36.362Z,39.50
2018-09-07T09:52:06.921Z,39.40
2018-09-07T09:54:37.963Z,39.70
2018-09-07T09:57:08.987Z,39.70
2018-09-07T09:59:40.626Z,40.00
2018-09-07T10:02:15.773Z,40.90
2018-09-07T10:04:46.673Z,41.00
2018-09-07T10:07:16.808Z,41.50
2018-09-07T10:09:47.172Z,41.60
2018-09-07T10:12:17.550Z,42.40
2018-09-07T10:14:48.060Z,42.60
2018-09-07T10:17:18.667Z,43.80
2018-09-07T10:19:49.239Z,44.50
2018-09-07T10:22:20.064Z,45.10
2018-09-07T10:24:50.489Z,45.40
2018-09-07T10:27:21.399Z,45.40
2018-09-07T10:29:52.593Z,45.40
2018-09-07T10:32:23.522Z,45.10
2018-09-07T10:34:55.633Z,44.90
2018-09-07T10:37:27.182Z,44.80
2018-09-07T10:39:58.555Z,45.10
2018-09-07T10:42:29.133Z,44.60
2018-09-07T10:45:00.155Z,44.00
2018-09-07T10:47:31.477Z,44.10
2018-09-07T10:50:02.132Z,44.30
2018-09-07T10:52:33.045Z,44.70
2018-09-07T10:55:04.134Z,45.40
2018-09-07T10:57:34.737Z,45.40
2018-09-07T11:00:05.311Z,45.80
2018-09-07T11:02:36.128Z,46.50
2018-09-07T11:05:07.446Z,47.70
2018-09-07T11:07:38.035Z,47.00
2018-09-07T11:10:09.129Z,46.60
2018-09-07T11:12:39.883Z,45.80
2018-09-07T11:15:10.799Z,44.70
2018-09-07T11:17:41.965Z,44.20
2018-09-07T11:20:13.472Z,43.80
2018-09-07T11:22:44.049Z,44.00
2018-09-07T11:25:14.477Z,43.40
2018-09-07T11:27:45.129Z,43.50
2018-09-07T11:30:16.205Z,44.40
2018-09-07T11:32:46.020Z,43.70
2018-09-07T11:35:17.160Z,43.40
2018-09-07T11:37:47.821Z,43.40
2018-09-07T11:40:19.084Z,43.50
2018-09-07T11:42:50.929Z,43.70
2018-09-07T11:45:21.832Z,44.30
2018-09-07T11:47:53.039Z,45.00
2018-09-07T11:50:24.203Z,45.00
2018-09-07T11:52:54.478Z,45.40
2018-09-07T11:55:25.408Z,46.00
2018-09-07T11:57:55.864Z,46.80
2018-09-07T12:00:26.762Z,47.30
2018-09-07T12:02:56.714Z,46.00
2018-09-07T12:05:27.435Z,45.80
2018-09-07T12:07:57.664Z,45.20
2018-09-07T12:10:28.399Z,43.80
2018-09-07T12:12:59.805Z,43.70
2018-09-07T12:15:30.919Z,44.00
2018-09-07T12:18:02.084Z,43.50
2018-09-07T12:20:33.499Z,42.70
2018-09-07T12:23:03.923Z,42.50
2018-09-07T12:25:35.435Z,40.80
2018-09-07T12:28:06.048Z,40.60
2018-09-07T12:30:36.964Z,40.00
2018-09-07T12:33:09.643Z,39.30
2018-09-07T12:35:43.545Z,39.00
2018-09-07T12:38:14.143Z,38.20
2018-09-07T12:40:45.699Z,37.30
2018-09-07T12:43:16.227Z,36.20
2018-09-07T12:45:47.629Z,35.80
2018-09-07T12:48:18.855Z,35.80
2018-09-07T12:50:49.851Z,35.50
2018-09-07T12:53:20.637Z,35.70
2018-09-07T12:55:51.009Z,35.60
2018-09-07T12:58:22.207Z,36.30
2018-09-07T13:00:52.933Z,37.00
2018-09-07T13:03:23.308Z,37.40
2018-09-07T13:05:54.472Z,38.30
2018-09-07T13:08:25.712Z,39.60
2018-09-07T13:10:57.368Z,40.60
2018-09-07T13:13:28.102Z,41.00
2018-09-07T13:15:59.071Z,42.30
2018-09-07T13:18:29.362Z,42.90
2018-09-07T13:21:00.576Z,43.50
2018-09-07T13:23:31.051Z,43.90
2018-09-07T13:26:01.760Z,43.90
2018-09-07T13:28:33.389Z,43.40
2018-09-07T13:31:04.190Z,43.90
2018-09-07T13:33:35.438Z,44.40
2018-09-07T13:36:06.523Z,44.70
2018-09-07T13:38:38.013Z,44.70
2018-09-07T13:41:08.637Z,45.60
2018-09-07T13:43:39.738Z,46.20
2018-09-07T13:46:10.345Z,46.60
2018-09-07T13:48:41.033Z,46.50
2018-09-07T13:51:15.478Z,45.50
2018-09-07T13:53:47.207Z,45.60
2018-09-07T13:56:18.738Z,45.00
2018-09-07T13:58:49.834Z,44.60
2018-09-07T14:01:21.185Z,44.10
2018-09-07T14:03:52.324Z,44.70
2018-09-07T14:06:24.086Z,44.80
2018-09-07T14:08:55.044Z,43.80
2018-09-07T14:11:27.192Z,42.30
2018-09-07T14:13:58.286Z,41.80
2018-09-07T14:16:28.806Z,41.50
2018-09-07T14:18:59.803Z,40.70
2018-09-07T14:21:31.838Z,40.30
2018-09-07T14:24:14.240Z,39.60
2018-09-07T14:26:53.403Z,38.70
2018-09-07T14:29:23.837Z,38.90
2018-09-07T14:31:54.542Z,39.20
2018-09-07T14:34:25.445Z,39.50
2018-09-07T14:36:55.959Z,39.50
2018-09-07T14:39:26.588Z,38.80
2018-09-07T14:41:57.268Z,37.60
2018-09-07T14:44:27.706Z,37.10
2018-09-07T14:46:58.325Z,36.60
2018-09-07T14:49:29.102Z,36.10
2018-09-07T14:51:59.524Z,35.30
2018-09-07T14:54:30.950Z,34.90
2018-09-07T14:57:01.663Z,34.60
2018-09-07T14:59:32.387Z,35.30
2018-09-07T15:02:02.786Z,36.10
2018-09-07T15:04:33.534Z,36.40
2018-09-07T15:07:05.165Z,36.20
2018-09-07T15:09:35.818Z,35.80
2018-09-07T15:12:07.139Z,35.60
2018-09-07T15:14:37.975Z,35.30
2018-09-07T15:17:08.647Z,34.70
2018-09-07T15:19:40.017Z,34.50
2018-09-07T15:22:11.202Z,33.90
2018-09-07T15:24:42.517Z,33.30
2018-09-07T15:27:13.590Z,33.10
2018-09-07T15:29:44.143Z,33.20
2018-09-07T15:32:14.719Z,33.00
2018-09-07T15:34:45.343Z,33.00
2018-09-07T15:37:16.469Z,32.80
2018-09-07T15:39:47.185Z,32.50
2018-09-07T15:42:17.693Z,32.20
2018-09-07T15:44:48.534Z,32.20
2018-09-07T15:47:19.333Z,32.00
2018-09-07T15:49:50.036Z,31.70
2018-09-07T15:52:20.852Z,31.30
2018-09-07T15:54:51.751Z,31.10
2018-09-07T15:57:22.433Z,30.70
2018-09-07T15:59:53.508Z,30.60
2018-09-07T16:02:24.798Z,30.60
2018-09-07T16:04:56.860Z,30.50
2018-09-07T16:07:28.280Z,30.30
2018-09-07T16:09:59.511Z,29.90
2018-09-07T16:12:29.907Z,29.60
2018-09-07T16:15:01.229Z,29.20
2018-09-07T16:17:32.639Z,28.90
2018-09-07T16:20:03.608Z,28.80
2018-09-07T16:22:34.848Z,28.70
2018-09-07T16:25:05.827Z,28.30
2018-09-07T16:27:36.477Z,27.80
2018-09-07T16:30:07.631Z,27.60
2018-09-07T16:32:38.478Z,27.40
2018-09-07T16:35:08.928Z,27.30
2018-09-07T16:37:39.630Z,26.80
2018-09-07T16:40:11.205Z,26.70
2018-09-07T16:42:42.635Z,26.50
2018-09-07T16:45:13.933Z,26.10
2018-09-07T16:47:45.051Z,25.80
2018-09-07T16:50:16.150Z,25.70
2018-09-07T16:52:47.201Z,25.60
2018-09-07T16:55:18.090Z,25.50
2018-09-07T16:57:49.015Z,25.40
2018-09-07T17:00:20.351Z,25.50
2018-09-07T17:02:50.915Z,25.40
2018-09-07T17:05:21.729Z,25.60
2018-09-07T17:07:52.472Z,25.70
2018-09-07T17:10:23.831Z,25.80
2018-09-07T17:12:54.019Z,25.50
2018-09-07T17:15:24.840Z,25.40
2018-09-07T17:17:55.759Z,25.30
2018-09-07T17:20:27.523Z,25.20
2018-09-07T17:22:58.356Z,25.10
2018-09-07T17:25:29.417Z,25.10
2018-09-07T17:28:00.171Z,25.20
2018-09-07T17:30:30.755Z,25.10
2018-09-07T17:33:02.505Z,25.10
2018-09-07T17:35:33.088Z,25.00
2018-09-07T17:38:04.079Z,24.80
2018-09-07T17:40:34.134Z,24.90
2018-09-07T17:43:04.894Z,24.90
2018-09-07T17:45:35.714Z,24.70
2018-09-07T17:48:06.560Z,24.60
2018-09-07T17:50:37.703Z,24.40
2018-09-07T17:53:08.761Z,24.40
2018-09-07T17:55:40.326Z,24.40
2018-09-07T17:58:12.464Z,24.30
2018-09-07T18:00:42.973Z,24.40
2018-09-07T18:03:14.780Z,24.30
2018-09-07T18:05:45.718Z,24.20
2018-09-07T18:08:16.524Z,24.30
2018-09-07T18:10:47.716Z,24.10
2018-09-07T18:13:18.664Z,24.10
2018-09-07T18:15:49.125Z,23.80
2018-09-07T18:18:19.729Z,23.50
2018-09-07T18:20:50.377Z,23.50
2018-09-07T18:23:21.308Z,23.60
2018-09-07T18:25:51.887Z,23.50
2018-09-07T18:28:22.077Z,23.60
2018-09-07T18:30:52.295Z,23.60
2018-09-07T18:33:24.889Z,23.60
2018-09-07T18:35:55.723Z,23.50
2018-09-07T18:38:25.505Z,23.60
2018-09-07T18:40:56.113Z,23.60
2018-09-07T18:43:26.668Z,23.60
2018-09-07T18:45:56.995Z,23.40
2018-09-07T18:48:29.838Z,23.40
2018-09-07T18:51:00.684Z,23.50
2018-09-07T18:53:31.739Z,23.50
2018-09-07T18:56:02.757Z,23.50
2018-09-07T18:58:34.046Z,23.50
2018-09-07T19:01:04.638Z,23.60
2018-09-07T19:03:34.734Z,23.80
2018-09-07T19:06:05.279Z,23.70
2018-09-07T19:08:35.944Z,23.60
2018-09-07T19:11:06.850Z,23.70
2018-09-07T19:13:37.292Z,23.60
2018-09-07T19:16:07.640Z,23.50
2018-09-07T19:18:38.472Z,23.40
2018-09-07T19:21:09.100Z,23.30
2018-09-07T19:23:39.927Z,23.30
2018-09-07T19:26:10.948Z,23.30
2018-09-07T19:28:41.594Z,23.10
2018-09-07T19:31:11.413Z,23.00
2018-09-07T19:33:42.532Z,22.90
2018-09-07T19:36:14.073Z,22.70
2018-09-07T19:38:43.959Z,22.70
2018-09-07T19:41:19.309Z,22.60
2018-09-07T19:43:50.047Z,22.60
2018-09-07T19:46:21.601Z,22.80
2018-09-07T19:48:53.016Z,22.90
2018-09-07T19:51:24.416Z,22.90
2018-09-07T19:53:55.255Z,22.90
2018-09-07T19:56:26.608Z,23.00
2018-09-07T19:58:57.442Z,23.00
2018-09-07T20:01:28.197Z,23.00
2018-09-07T20:03:58.133Z,22.90
2018-09-07T20:06:29.745Z,22.90
2018-09-07T20:09:00.633Z,22.90
2018-09-07T20:11:32.299Z,22.70
2018-09-07T20:14:03.547Z,22.50
2018-09-07T20:16:34.599Z,22.50
2018-09-07T20:19:05.902Z,22.50
2018-09-07T20:21:37.197Z,22.60
2018-09-07T20:24:08.316Z,22.60
2018-09-07T20:26:38.952Z,22.50
2018-09-07T20:29:10.901Z,22.40
2018-09-07T20:31:41.909Z,22.40
2018-09-07T20:34:13.603Z,22.40
2018-09-07T20:36:44.399Z,22.40
2018-09-07T20:39:15.264Z,22.20
2018-09-07T20:41:45.741Z,22.10
2018-09-07T20:44:16.729Z,22.00
2018-09-07T20:46:47.472Z,22.10
2018-09-07T20:49:18.320Z,22.20
2018-09-07T20:51:49.122Z,22.10
2018-09-07T20:54:19.711Z,21.90
2018-09-07T20:56:50.774Z,21.80
2018-09-07T20:59:21.912Z,21.70
2018-09-07T21:01:53.757Z,21.50
2018-09-07T21:04:24.679Z,21.50
2018-09-07T21:06:55.677Z,21.60
2018-09-07T21:09:26.217Z,21.60
2018-09-07T21:11:57.246Z,21.70
2018-09-07T21:14:28.669Z,21.60
2018-09-07T21:16:59.898Z,21.50
2018-09-07T21:19:30.051Z,21.50
2018-09-07T21:22:00.662Z,21.40
2018-09-07T21:24:31.463Z,21.50
2018-09-07T21:27:02.677Z,21.50
2018-09-07T21:29:33.916Z,21.50
2018-09-07T21:32:04.648Z,21.50
2018-09-07T21:34:35.944Z,21.50
2018-09-07T21:37:07.391Z,21.50
2018-09-07T21:39:37.891Z,21.50
2018-09-07T21:42:08.001Z,21.70
2018-09-07T21:44:39.326Z,21.70
2018-09-07T21:47:16.545Z,21.70
2018-09-07T21:49:47.299Z,21.60
2018-09-07T21:52:18.027Z,21.60
2018-09-07T21:54:49.250Z,21.50
2018-09-07T21:57:19.712Z,21.40
2018-09-07T21:59:50.880Z,21.40
2018-09-07T22:02:28.927Z,21.50
2018-09-07T22:05:00.504Z,21.40
2018-09-07T22:07:36.091Z,21.40
2018-09-07T22:10:07.261Z,21.60
2018-09-07T22:12:38.851Z,21.50
2018-09-07T22:15:10.000Z,21.50
2018-09-07T22:17:41.128Z,21.30
2018-09-07T22:20:11.640Z,21.40
2018-09-07T22:22:42.372Z,21.40
2018-09-07T22:25:13.400Z,21.40
2018-09-07T22:27:44.358Z,21.40
2018-09-07T22:30:14.665Z,21.40
2018-09-07T22:32:45.520Z,21.50
2018-09-07T22:35:16.250Z,21.40
2018-09-07T22:37:47.165Z,21.50
2018-09-07T22:40:18.346Z,21.50
2018-09-07T22:42:49.743Z,21.60
2018-09-07T22:45:20.454Z,21.50
2018-09-07T22:47:51.045Z,21.30
2018-09-07T22:50:22.251Z,21.20
2018-09-07T22:52:52.899Z,21.20
2018-09-07T22:55:23.120Z,21.10
2018-09-07T22:57:53.252Z,21.10
2018-09-07T23:00:24.481Z,21.20
2018-09-07T23:02:56.034Z,21.20
2018-09-07T23:05:26.254Z,21.20
2018-09-07T23:07:56.468Z,21.10
2018-09-07T23:10:26.760Z,21.00
2018-09-07T23:12:56.880Z,21.10
2018-09-07T23:15:27.439Z,21.00
2018-09-07T23:17:57.439Z,21.20
2018-09-07T23:20:27.748Z,21.10
2018-09-07T23:22:58.450Z,20.90
2018-09-07T23:25:28.719Z,20.90
2018-09-07T23:27:59.786Z,20.90
2018-09-07T23:30:30.040Z,20.90
2018-09-07T23:32:59.950Z,20.80
2018-09-07T23:35:32.229Z,20.70
2018-09-07T23:38:02.172Z,20.80
2018-09-07T23:40:33.418Z,20.70
2018-09-07T23:43:03.739Z,20.50
2018-09-07T23:45:34.551Z,20.40
2018-09-07T23:48:05.311Z,20.30
2018-09-07T23:50:36.226Z,20.30
2018-09-07T23:53:06.831Z,20.40
2018-09-07T23:55:37.373Z,20.50
2018-09-07T23:58:08.041Z,20.60
